Swords, Ireland
Current Conditions -  °F | °C
As of 2:00 AM on Friday 19 Dec 2014 (Local Time) from EIDW Reporting Station
Clear Clear  
Wind Chill: 31°   Ceiling: Unl
Heat Index: 41°   Visibility: 6mi
Dew Point: 37°   Wind: 25mph
Humidity: 87%   Direction: 260°W
Pressure: 29.71"   Gusts: NA
Location:  53.45°N, 6.22°W
Report Text: EIDW 190200Z 26022KT CAVOK 05/03 Q1006 NOSIG
Loading
Personal Weather Stations






























Interactive Weather Map New forecast layout! Learn more

10-Day Weather Forecast

Advertisements
Track Severe Weather on mobile